Furacão SAM 2021: trajetória, intensidade e histórico
7/10/2021, 06:00:00
22/09/2021, 18:00:00 – 7/10/2021, 06:00:00
Trajetória histórica
Acompanhe a evolução e o deslocamento de Furacão SAM em 2021, com a trajetória completa registrada, ventos máximos sustentados de 135 nós, pressão central mínima e cronologia detalhada.
| Data | Hora | Tipo | Ventokm/h | PressãohPa |
|---|---|---|---|---|
| 07/10 | 06:00 | EXCiclone extratropical | 75 | 976 |
| 07/10 | 03:00 | EXCiclone extratropical | 80 | 975 |
| 07/10 | 00:00 | EXCiclone extratropical | 85 | 973 |
| 06/10 | 21:00 | EXCiclone extratropical | 85 | 972 |
| 06/10 | 18:00 | EXCiclone extratropical | 85 | 971 |
| 06/10 | 15:00 | EXCiclone extratropical | 90 | 970 |
| 06/10 | 12:00 | EXCiclone extratropical | 95 | 969 |
| 06/10 | 09:00 | EXCiclone extratropical | 100 | 969 |
| 06/10 | 06:00 | EXCiclone extratropical | 100 | 968 |
| 06/10 | 03:00 | EXCiclone extratropical | 105 | 968 |
| 06/10 | 00:00 | EXCiclone extratropical | 110 | 967 |
| 05/10 | 21:00 | EXCiclone extratropical | 115 | 967 |
| 05/10 | 18:00 | EXCiclone extratropical | 120 | 966 |
| 05/10 | 15:00 | EXCiclone extratropical | 120 | 966 |
| 05/10 | 12:00 | EXCiclone extratropical | 120 | 966 |
| 05/10 | 09:00 | EXCiclone extratropical | 125 | 966 |
| 05/10 | 06:00 | EXCiclone extratropical | 130 | 965 |
| 05/10 | 03:00 | HFuracão | 135 | 965 |
| 05/10 | 00:00 | HFuracão | 140 | 965 |
| 04/10 | 21:00 | HFuracão | 145 | 965 |
| 04/10 | 18:00 | HFuracão | 150 | 965 |
| 04/10 | 15:00 | HFuracão | 155 | 963 |
| 04/10 | 12:00 | HFuracão | 155 | 960 |
| 04/10 | 09:00 | HFuracão | 165 | 959 |
| 04/10 | 06:00 | HFuracão | 165 | 957 |
| 04/10 | 03:00 | HFuracão | 165 | 957 |
| 04/10 | 00:00 | HFuracão | 165 | 957 |
| 03/10 | 21:00 | HFuracão | 165 | 961 |
| 03/10 | 18:00 | HFuracão | 155 | 964 |
| 03/10 | 15:00 | HFuracão | 155 | 964 |
| 03/10 | 12:00 | HFuracão | 155 | 964 |
| 03/10 | 09:00 | HFuracão | 165 | 962 |
| 03/10 | 06:00 | HFuracão | 165 | 960 |
| 03/10 | 03:00 | HFuracão | 175 | 957 |
| 03/10 | 00:00 | MHFuracão de grande intensidade | 185 | 954 |
| 02/10 | 21:00 | HFuracão | 195 | 952 |
| 02/10 | 18:00 | MHFuracão de grande intensidade | 205 | 950 |
| 02/10 | 15:00 | HFuracão | 210 | 949 |
| 02/10 | 12:00 | MHFuracão de grande intensidade | 215 | 948 |
| 02/10 | 09:00 | HFuracão | 220 | 947 |
| 02/10 | 06:00 | MHFuracão de grande intensidade | 220 | 945 |
| 02/10 | 03:00 | HFuracão | 230 | 943 |
| 02/10 | 00:00 | MHFuracão de grande intensidade | 230 | 940 |
| 01/10 | 21:00 | HFuracão | 235 | 939 |
| 01/10 | 18:00 | MHFuracão de grande intensidade | 240 | 937 |
| 01/10 | 15:00 | HFuracão | 240 | 937 |
| 01/10 | 12:00 | MHFuracão de grande intensidade | 240 | 936 |
| 01/10 | 09:00 | HFuracão | 240 | 936 |
| 01/10 | 06:00 | MHFuracão de grande intensidade | 240 | 936 |
| 01/10 | 03:00 | HFuracão | 235 | 937 |
| 01/10 | 00:00 | MHFuracão de grande intensidade | 230 | 938 |
| 30/09 | 21:00 | HFuracão | 230 | 940 |
| 30/09 | 18:00 | MHFuracão de grande intensidade | 230 | 941 |
| 30/09 | 15:00 | HFuracão | 230 | 939 |
| 30/09 | 12:00 | MHFuracão de grande intensidade | 230 | 937 |
| 30/09 | 09:00 | HFuracão | 230 | 937 |
| 30/09 | 06:00 | MHFuracão de grande intensidade | 230 | 937 |
| 30/09 | 03:00 | HFuracão | 230 | 939 |
| 30/09 | 00:00 | MHFuracão de grande intensidade | 230 | 940 |
| 29/09 | 21:00 | HFuracão | 220 | 943 |
| 29/09 | 18:00 | MHFuracão de grande intensidade | 215 | 945 |
| 29/09 | 15:00 | HFuracão | 215 | 949 |
| 29/09 | 12:00 | MHFuracão de grande intensidade | 215 | 952 |
| 29/09 | 09:00 | HFuracão | 215 | 952 |
| 29/09 | 06:00 | MHFuracão de grande intensidade | 215 | 952 |
| 29/09 | 03:00 | HFuracão | 215 | 950 |
| 29/09 | 00:00 | MHFuracão de grande intensidade | 215 | 947 |
| 28/09 | 21:00 | HFuracão | 215 | 947 |
| 28/09 | 18:00 | MHFuracão de grande intensidade | 215 | 947 |
| 28/09 | 15:00 | HFuracão | 215 | 950 |
| 28/09 | 12:00 | MHFuracão de grande intensidade | 215 | 952 |
| 28/09 | 09:00 | HFuracão | 215 | 952 |
| 28/09 | 06:00 | MHFuracão de grande intensidade | 215 | 952 |
| 28/09 | 03:00 | HFuracão | 205 | 954 |
| 28/09 | 00:00 | MHFuracão de grande intensidade | 195 | 955 |
| 27/09 | 21:00 | HFuracão | 195 | 957 |
| 27/09 | 18:00 | MHFuracão de grande intensidade | 195 | 958 |
| 27/09 | 15:00 | HFuracão | 195 | 957 |
| 27/09 | 12:00 | MHFuracão de grande intensidade | 195 | 955 |
| 27/09 | 09:00 | HFuracão | 205 | 952 |
| 27/09 | 06:00 | MHFuracão de grande intensidade | 215 | 948 |
| 27/09 | 03:00 | HFuracão | 230 | 944 |
| 27/09 | 00:00 | MHFuracão de grande intensidade | 240 | 940 |
| 26/09 | 21:00 | HFuracão | 245 | 934 |
| 26/09 | 18:00 | MHFuracão de grande intensidade | 250 | 927 |
| 26/09 | 15:00 | HFuracão | 245 | 933 |
| 26/09 | 12:00 | MHFuracão de grande intensidade | 240 | 939 |
| 26/09 | 09:00 | HFuracão | 240 | 941 |
| 26/09 | 06:00 | MHFuracão de grande intensidade | 240 | 943 |
| 26/09 | 03:00 | HFuracão | 240 | 943 |
| 26/09 | 00:00 | MHFuracão de grande intensidade | 240 | 943 |
| 25/09 | 21:00 | HFuracão | 230 | 947 |
| 25/09 | 18:00 | MHFuracão de grande intensidade | 215 | 950 |
| 25/09 | 15:00 | HFuracão | 205 | 955 |
| 25/09 | 12:00 | MHFuracão de grande intensidade | 195 | 960 |
| 25/09 | 09:00 | HFuracão | 185 | 967 |
| 25/09 | 06:00 | HFuracão | 175 | 973 |
| 25/09 | 03:00 | HFuracão | 165 | 978 |
| 25/09 | 00:00 | HFuracão | 155 | 982 |
| 24/09 | 21:00 | HFuracão | 145 | 986 |
| 24/09 | 18:00 | HFuracão | 130 | 989 |
| 24/09 | 15:00 | HFuracão | 125 | 991 |
| 24/09 | 12:00 | HFuracão | 120 | 993 |
| 24/09 | 09:00 | HFuracão | 120 | 993 |
| 24/09 | 06:00 | HFuracão | 120 | 993 |
| 24/09 | 03:00 | TSTempestade tropical | 115 | 995 |
| 24/09 | 00:00 | TSTempestade tropical | 110 | 997 |
| 23/09 | 21:00 | TSTempestade tropical | 100 | 999 |
| 23/09 | 18:00 | TSTempestade tropical | 95 | 1000 |
| 23/09 | 15:00 | TSTempestade tropical | 90 | 1002 |
| 23/09 | 12:00 | TSTempestade tropical | 85 | 1003 |
| 23/09 | 09:00 | TSTempestade tropical | 75 | 1005 |
| 23/09 | 06:00 | TSTempestade tropical | 65 | 1006 |
| 23/09 | 03:00 | TDDepressão tropical | 60 | 1007 |
| 23/09 | 00:00 | TDDepressão tropical | 55 | 1008 |
| 22/09 | 21:00 | TDDepressão tropical | 55 | 1008 |
| 22/09 | 18:00 | TDDepressão tropical | 55 | 1008 |
Cronologia de localização
117 Registos de localizaçãoDesastres naturais próximos
Detalhes do evento
Ligações das fontes
Também pode encontrar estas ferramentas úteis
A localização, a extensão e o estado de cada evento podem ser atualizados em momentos diferentes consoante a fonte. Confirme decisões importantes junto das autoridades oficiais de emergência.
Os registos de eventos provêm da NASA EONET e são complementados por registos de deslizamentos de terra do USGS FDSN. As análises e previsões de tempestades podem utilizar a NOAA NHC ou o JTWC, com registos históricos ATCF da UCAR/NCAR quando disponíveis. As imagens de satélite provêm da NASA Worldview/GIBS (GOES e Himawari) ou da EUMETSAT Meteosat, consoante a cobertura do mapa.
Fontes: NASA EONET · USGS · NOAA NHC · JTWC · UCAR/NCAR ATCF · NASA Worldview/GIBS · EUMETSAT Meteosat · OpenStreetMap contributors